sensor_id;sensor_type;location;lat;lon;timestamp;temperature;humidity
18575;DHT22;9417;16.484;102.872;2022-12-29T00:01:02;17.40;92.30
18575;DHT22;9417;16.484;102.872;2022-12-29T00:03:10;17.30;92.10
18575;DHT22;9417;16.484;102.872;2022-12-29T00:05:17;17.30;92.10
18575;DHT22;9417;16.484;102.872;2022-12-29T00:07:26;17.40;92.60
18575;DHT22;9417;16.484;102.872;2022-12-29T00:09:33;17.40;92.50
18575;DHT22;9417;16.484;102.872;2022-12-29T00:11:41;17.50;92.40
18575;DHT22;9417;16.484;102.872;2022-12-29T00:13:49;17.60;92.50
18575;DHT22;9417;16.484;102.872;2022-12-29T00:16:13;17.60;92.50
18575;DHT22;9417;16.484;102.872;2022-12-29T00:18:19;17.60;92.80
18575;DHT22;9417;16.484;102.872;2022-12-29T00:20:26;17.60;92.90
18575;DHT22;9417;16.484;102.872;2022-12-29T00:22:51;17.70;92.90
18575;DHT22;9417;16.484;102.872;2022-12-29T00:25:15;17.70;93.00
18575;DHT22;9417;16.484;102.872;2022-12-29T00:27:39;17.80;93.20
18575;DHT22;9417;16.484;102.872;2022-12-29T00:30:11;17.80;93.00
18575;DHT22;9417;16.484;102.872;2022-12-29T00:32:36;17.90;92.80
18575;DHT22;9417;16.484;102.872;2022-12-29T00:35:00;18.00;92.70
18575;DHT22;9417;16.484;102.872;2022-12-29T00:37:16;18.00;92.80
18575;DHT22;9417;16.484;102.872;2022-12-29T00:39:45;18.10;92.60
18575;DHT22;9417;16.484;102.872;2022-12-29T00:42:10;18.10;92.70
18575;DHT22;9417;16.484;102.872;2022-12-29T00:44:39;18.20;92.80
18575;DHT22;9417;16.484;102.872;2022-12-29T00:46:46;18.20;92.90
18575;DHT22;9417;16.484;102.872;2022-12-29T00:48:55;18.20;92.90
18575;DHT22;9417;16.484;102.872;2022-12-29T00:51:20;18.30;92.80
18575;DHT22;9417;16.484;102.872;2022-12-29T00:53:27;18.30;92.70
18575;DHT22;9417;16.484;102.872;2022-12-29T00:55:38;18.40;92.40
18575;DHT22;9417;16.484;102.872;2022-12-29T00:57:46;18.50;92.30
18575;DHT22;9417;16.484;102.872;2022-12-29T00:59:53;18.50;92.00
18575;DHT22;9417;16.484;102.872;2022-12-29T01:02:00;18.60;91.50
18575;DHT22;9417;16.484;102.872;2022-12-29T01:04:08;18.70;91.40
18575;DHT22;9417;16.484;102.872;2022-12-29T01:06:15;18.80;90.90
18575;DHT22;9417;16.484;102.872;2022-12-29T01:08:22;18.90;90.50
18575;DHT22;9417;16.484;102.872;2022-12-29T01:10:29;19.00;90.20
18575;DHT22;9417;16.484;102.872;2022-12-29T01:12:37;19.10;89.30
18575;DHT22;9417;16.484;102.872;2022-12-29T01:14:49;19.20;88.40
18575;DHT22;9417;16.484;102.872;2022-12-29T01:16:56;19.30;87.50
18575;DHT22;9417;16.484;102.872;2022-12-29T01:19:04;19.40;87.30
18575;DHT22;9417;16.484;102.872;2022-12-29T01:21:11;19.50;87.30
18575;DHT22;9417;16.484;102.872;2022-12-29T01:23:19;19.60;87.20
18575;DHT22;9417;16.484;102.872;2022-12-29T01:25:26;19.70;85.80
18575;DHT22;9417;16.484;102.872;2022-12-29T01:27:36;19.80;85.60
18575;DHT22;9417;16.484;102.872;2022-12-29T01:29:43;19.80;85.10
18575;DHT22;9417;16.484;102.872;2022-12-29T01:31:50;19.90;85.10
18575;DHT22;9417;16.484;102.872;2022-12-29T01:33:58;20.00;84.80
18575;DHT22;9417;16.484;102.872;2022-12-29T01:36:07;20.10;84.70
18575;DHT22;9417;16.484;102.872;2022-12-29T01:38:14;20.10;84.40
18575;DHT22;9417;16.484;102.872;2022-12-29T01:40:21;20.20;82.70
18575;DHT22;9417;16.484;102.872;2022-12-29T01:42:28;20.30;81.90
18575;DHT22;9417;16.484;102.872;2022-12-29T01:44:58;20.30;81.80
18575;DHT22;9417;16.484;102.872;2022-12-29T01:47:08;20.40;81.50
18575;DHT22;9417;16.484;102.872;2022-12-29T01:49:18;20.50;80.90
18575;DHT22;9417;16.484;102.872;2022-12-29T01:51:26;20.50;80.40
18575;DHT22;9417;16.484;102.872;2022-12-29T01:53:35;20.50;80.60
18575;DHT22;9417;16.484;102.872;2022-12-29T01:55:46;20.60;80.70
18575;DHT22;9417;16.484;102.872;2022-12-29T01:57:56;20.60;80.80
18575;DHT22;9417;16.484;102.872;2022-12-29T02:00:10;20.70;80.90
18575;DHT22;9417;16.484;102.872;2022-12-29T02:02:23;20.80;79.80
18575;DHT22;9417;16.484;102.872;2022-12-29T02:04:38;20.90;80.30
18575;DHT22;9417;16.484;102.872;2022-12-29T02:06:55;21.00;79.70
18575;DHT22;9417;16.484;102.872;2022-12-29T02:09:04;21.00;79.60
18575;DHT22;9417;16.484;102.872;2022-12-29T02:11:12;21.10;79.60
18575;DHT22;9417;16.484;102.872;2022-12-29T02:13:19;21.20;77.60
18575;DHT22;9417;16.484;102.872;2022-12-29T02:15:34;21.10;77.80
18575;DHT22;9417;16.484;102.872;2022-12-29T02:17:53;21.20;78.10
18575;DHT22;9417;16.484;102.872;2022-12-29T02:23:12;21.40;77.50
18575;DHT22;9417;16.484;102.872;2022-12-29T02:25:52;21.50;76.50
18575;DHT22;9417;16.484;102.872;2022-12-29T02:28:27;21.60;75.80
18575;DHT22;9417;16.484;102.872;2022-12-29T02:30:50;21.60;76.10
18575;DHT22;9417;16.484;102.872;2022-12-29T02:33:09;21.70;76.30
18575;DHT22;9417;16.484;102.872;2022-12-29T02:35:29;21.80;75.10
18575;DHT22;9417;16.484;102.872;2022-12-29T02:37:43;21.80;75.40
18575;DHT22;9417;16.484;102.872;2022-12-29T02:40:01;21.90;75.10
18575;DHT22;9417;16.484;102.872;2022-12-29T02:42:17;21.90;74.60
18575;DHT22;9417;16.484;102.872;2022-12-29T02:44:35;22.00;74.30
18575;DHT22;9417;16.484;102.872;2022-12-29T02:46:50;22.00;73.80
18575;DHT22;9417;16.484;102.872;2022-12-29T02:49:06;22.10;73.50
18575;DHT22;9417;16.484;102.872;2022-12-29T02:51:19;22.20;73.00
18575;DHT22;9417;16.484;102.872;2022-12-29T02:53:29;22.30;73.10
18575;DHT22;9417;16.484;102.872;2022-12-29T02:55:54;22.40;72.90
18575;DHT22;9417;16.484;102.872;2022-12-29T02:58:16;22.40;72.60
18575;DHT22;9417;16.484;102.872;2022-12-29T03:00:25;22.50;71.40
18575;DHT22;9417;16.484;102.872;2022-12-29T03:03:08;22.70;70.80
18575;DHT22;9417;16.484;102.872;2022-12-29T03:05:30;22.80;70.10
18575;DHT22;9417;16.484;102.872;2022-12-29T03:07:46;22.90;69.60
18575;DHT22;9417;16.484;102.872;2022-12-29T03:10:02;23.00;69.40
18575;DHT22;9417;16.484;102.872;2022-12-29T03:12:16;23.00;69.20
18575;DHT22;9417;16.484;102.872;2022-12-29T03:14:29;23.00;69.20
18575;DHT22;9417;16.484;102.872;2022-12-29T03:17:00;23.10;67.00
18575;DHT22;9417;16.484;102.872;2022-12-29T03:19:16;23.20;66.80
18575;DHT22;9417;16.484;102.872;2022-12-29T03:21:32;23.30;66.70
18575;DHT22;9417;16.484;102.872;2022-12-29T03:23:58;23.50;66.90
18575;DHT22;9417;16.484;102.872;2022-12-29T03:26:10;23.50;65.20
18575;DHT22;9417;16.484;102.872;2022-12-29T03:28:21;23.50;65.10
18575;DHT22;9417;16.484;102.872;2022-12-29T03:30:30;23.60;65.30
18575;DHT22;9417;16.484;102.872;2022-12-29T03:32:43;23.70;65.60
18575;DHT22;9417;16.484;102.872;2022-12-29T03:34:52;23.70;64.60
18575;DHT22;9417;16.484;102.872;2022-12-29T03:37:05;23.70;64.10
18575;DHT22;9417;16.484;102.872;2022-12-29T03:39:14;23.80;65.50
18575;DHT22;9417;16.484;102.872;2022-12-29T03:41:23;23.90;65.40
18575;DHT22;9417;16.484;102.872;2022-12-29T03:43:34;23.90;65.40
18575;DHT22;9417;16.484;102.872;2022-12-29T03:45:41;24.00;65.10
18575;DHT22;9417;16.484;102.872;2022-12-29T03:47:49;24.10;64.30
18575;DHT22;9417;16.484;102.872;2022-12-29T03:49:58;24.20;63.80
18575;DHT22;9417;16.484;102.872;2022-12-29T03:52:09;24.10;63.80
18575;DHT22;9417;16.484;102.872;2022-12-29T03:54:20;24.20;63.70
18575;DHT22;9417;16.484;102.872;2022-12-29T03:56:29;24.20;63.80
18575;DHT22;9417;16.484;102.872;2022-12-29T03:58:37;24.30;63.30
18575;DHT22;9417;16.484;102.872;2022-12-29T04:00:49;24.30;62.20
18575;DHT22;9417;16.484;102.872;2022-12-29T04:02:56;24.40;62.30
18575;DHT22;9417;16.484;102.872;2022-12-29T04:05:06;24.50;63.00
18575;DHT22;9417;16.484;102.872;2022-12-29T04:07:13;24.60;63.20
18575;DHT22;9417;16.484;102.872;2022-12-29T04:09:20;24.70;61.60
18575;DHT22;9417;16.484;102.872;2022-12-29T04:11:28;24.80;60.60
18575;DHT22;9417;16.484;102.872;2022-12-29T04:13:39;24.80;61.50
18575;DHT22;9417;16.484;102.872;2022-12-29T04:15:50;24.90;61.20
18575;DHT22;9417;16.484;102.872;2022-12-29T04:17:58;25.00;61.00
18575;DHT22;9417;16.484;102.872;2022-12-29T04:20:08;25.00;61.10
18575;DHT22;9417;16.484;102.872;2022-12-29T04:22:33;25.10;59.70
18575;DHT22;9417;16.484;102.872;2022-12-29T04:24:41;25.10;60.20
18575;DHT22;9417;16.484;102.872;2022-12-29T04:26:50;25.20;60.60
18575;DHT22;9417;16.484;102.872;2022-12-29T04:29:23;25.30;60.40
18575;DHT22;9417;16.484;102.872;2022-12-29T04:31:55;25.30;58.90
18575;DHT22;9417;16.484;102.872;2022-12-29T04:34:05;25.40;58.10
18575;DHT22;9417;16.484;102.872;2022-12-29T04:36:14;25.40;58.00
18575;DHT22;9417;16.484;102.872;2022-12-29T04:38:22;25.50;57.70
18575;DHT22;9417;16.484;102.872;2022-12-29T04:40:30;25.60;58.20
18575;DHT22;9417;16.484;102.872;2022-12-29T04:42:37;25.70;58.40
18575;DHT22;9417;16.484;102.872;2022-12-29T04:44:44;25.70;58.60
18575;DHT22;9417;16.484;102.872;2022-12-29T04:47:18;25.80;58.50
18575;DHT22;9417;16.484;102.872;2022-12-29T04:49:32;25.80;57.90
18575;DHT22;9417;16.484;102.872;2022-12-29T04:52:19;25.80;57.80
18575;DHT22;9417;16.484;102.872;2022-12-29T04:54:27;25.90;57.80
18575;DHT22;9417;16.484;102.872;2022-12-29T04:56:45;26.00;58.20
18575;DHT22;9417;16.484;102.872;2022-12-29T04:58:53;26.10;57.80
18575;DHT22;9417;16.484;102.872;2022-12-29T05:01:00;26.00;56.60
18575;DHT22;9417;16.484;102.872;2022-12-29T05:03:07;26.00;56.60
18575;DHT22;9417;16.484;102.872;2022-12-29T05:05:17;26.10;55.40
18575;DHT22;9417;16.484;102.872;2022-12-29T05:07:28;26.10;54.80
18575;DHT22;9417;16.484;102.872;2022-12-29T05:09:37;26.10;55.90
18575;DHT22;9417;16.484;102.872;2022-12-29T05:11:43;26.20;56.30
18575;DHT22;9417;16.484;102.872;2022-12-29T05:13:51;26.30;56.00
18575;DHT22;9417;16.484;102.872;2022-12-29T05:15:58;26.30;55.90
18575;DHT22;9417;16.484;102.872;2022-12-29T05:18:05;26.40;56.10
18575;DHT22;9417;16.484;102.872;2022-12-29T05:20:12;26.50;56.20
18575;DHT22;9417;16.484;102.872;2022-12-29T05:22:20;26.50;55.10
18575;DHT22;9417;16.484;102.872;2022-12-29T05:24:29;26.50;55.20
18575;DHT22;9417;16.484;102.872;2022-12-29T05:26:36;26.50;54.50
18575;DHT22;9417;16.484;102.872;2022-12-29T05:29:02;26.50;55.20
18575;DHT22;9417;16.484;102.872;2022-12-29T05:31:09;26.60;55.40
18575;DHT22;9417;16.484;102.872;2022-12-29T05:33:16;26.70;55.40
18575;DHT22;9417;16.484;102.872;2022-12-29T05:35:26;26.70;55.30
18575;DHT22;9417;16.484;102.872;2022-12-29T05:37:33;26.80;54.50
18575;DHT22;9417;16.484;102.872;2022-12-29T05:39:42;26.80;54.00
18575;DHT22;9417;16.484;102.872;2022-12-29T05:41:50;26.90;53.80
18575;DHT22;9417;16.484;102.872;2022-12-29T05:44:23;26.90;54.10
18575;DHT22;9417;16.484;102.872;2022-12-29T05:46:54;26.90;54.00
18575;DHT22;9417;16.484;102.872;2022-12-29T05:49:36;27.00;54.40
18575;DHT22;9417;16.484;102.872;2022-12-29T05:51:53;27.00;54.40
18575;DHT22;9417;16.484;102.872;2022-12-29T05:54:00;27.10;54.20
18575;DHT22;9417;16.484;102.872;2022-12-29T05:56:09;27.20;54.10
18575;DHT22;9417;16.484;102.872;2022-12-29T05:58:17;27.20;53.90
18575;DHT22;9417;16.484;102.872;2022-12-29T06:00:38;27.20;53.80
18575;DHT22;9417;16.484;102.872;2022-12-29T06:02:46;27.20;53.80
18575;DHT22;9417;16.484;102.872;2022-12-29T06:04:54;27.30;53.80
18575;DHT22;9417;16.484;102.872;2022-12-29T06:07:01;27.30;52.70
18575;DHT22;9417;16.484;102.872;2022-12-29T06:09:17;27.40;53.40
18575;DHT22;9417;16.484;102.872;2022-12-29T06:11:26;27.40;53.50
18575;DHT22;9417;16.484;102.872;2022-12-29T06:13:35;27.40;53.40
18575;DHT22;9417;16.484;102.872;2022-12-29T06:15:42;27.40;53.30
18575;DHT22;9417;16.484;102.872;2022-12-29T06:17:49;27.50;53.40
18575;DHT22;9417;16.484;102.872;2022-12-29T06:19:58;27.50;53.10
18575;DHT22;9417;16.484;102.872;2022-12-29T06:22:06;27.50;52.60
18575;DHT22;9417;16.484;102.872;2022-12-29T06:24:16;27.60;52.40
18575;DHT22;9417;16.484;102.872;2022-12-29T06:26:43;27.50;52.60
18575;DHT22;9417;16.484;102.872;2022-12-29T06:28:49;27.50;51.90
18575;DHT22;9417;16.484;102.872;2022-12-29T06:30:58;27.50;51.80
18575;DHT22;9417;16.484;102.872;2022-12-29T06:33:06;27.50;51.50
18575;DHT22;9417;16.484;102.872;2022-12-29T06:35:14;27.50;51.10
18575;DHT22;9417;16.484;102.872;2022-12-29T06:37:25;27.40;52.00
18575;DHT22;9417;16.484;102.872;2022-12-29T06:39:32;27.50;52.30
18575;DHT22;9417;16.484;102.872;2022-12-29T06:41:44;27.60;52.00
18575;DHT22;9417;16.484;102.872;2022-12-29T06:44:11;27.60;51.10
18575;DHT22;9417;16.484;102.872;2022-12-29T06:46:37;27.60;51.80
18575;DHT22;9417;16.484;102.872;2022-12-29T06:48:44;27.60;52.00
18575;DHT22;9417;16.484;102.872;2022-12-29T06:50:51;27.60;52.30
18575;DHT22;9417;16.484;102.872;2022-12-29T06:52:58;27.60;52.50
18575;DHT22;9417;16.484;102.872;2022-12-29T06:55:06;27.70;52.60
18575;DHT22;9417;16.484;102.872;2022-12-29T06:57:15;27.70;51.60
18575;DHT22;9417;16.484;102.872;2022-12-29T06:59:22;27.70;51.60
18575;DHT22;9417;16.484;102.872;2022-12-29T07:01:29;27.70;51.80
18575;DHT22;9417;16.484;102.872;2022-12-29T07:03:36;27.70;52.00
18575;DHT22;9417;16.484;102.872;2022-12-29T07:05:43;27.70;52.00
18575;DHT22;9417;16.484;102.872;2022-12-29T07:07:51;27.70;51.60
18575;DHT22;9417;16.484;102.872;2022-12-29T07:09:58;27.70;52.40
18575;DHT22;9417;16.484;102.872;2022-12-29T07:12:24;27.70;52.10
18575;DHT22;9417;16.484;102.872;2022-12-29T07:14:31;27.70;52.30
18575;DHT22;9417;16.484;102.872;2022-12-29T07:16:45;27.70;51.90
18575;DHT22;9417;16.484;102.872;2022-12-29T07:19:07;27.70;51.00
18575;DHT22;9417;16.484;102.872;2022-12-29T07:21:14;27.60;50.50
18575;DHT22;9417;16.484;102.872;2022-12-29T07:23:21;27.60;50.90
18575;DHT22;9417;16.484;102.872;2022-12-29T07:25:28;27.60;51.20
18575;DHT22;9417;16.484;102.872;2022-12-29T07:27:37;27.70;50.40
18575;DHT22;9417;16.484;102.872;2022-12-29T07:29:44;27.70;49.30
18575;DHT22;9417;16.484;102.872;2022-12-29T07:31:51;27.70;50.00
18575;DHT22;9417;16.484;102.872;2022-12-29T07:33:58;27.80;50.80
18575;DHT22;9417;16.484;102.872;2022-12-29T07:36:06;27.80;50.80
18575;DHT22;9417;16.484;102.872;2022-12-29T07:38:13;27.80;51.10
18575;DHT22;9417;16.484;102.872;2022-12-29T07:40:20;27.80;51.10
18575;DHT22;9417;16.484;102.872;2022-12-29T07:42:28;27.80;50.90
18575;DHT22;9417;16.484;102.872;2022-12-29T07:44:37;27.80;50.90
18575;DHT22;9417;16.484;102.872;2022-12-29T07:47:02;27.80;51.00
18575;DHT22;9417;16.484;102.872;2022-12-29T07:49:09;27.90;51.50
18575;DHT22;9417;16.484;102.872;2022-12-29T07:51:17;27.80;51.10
18575;DHT22;9417;16.484;102.872;2022-12-29T07:53:24;27.80;51.30
18575;DHT22;9417;16.484;102.872;2022-12-29T07:55:31;27.80;51.10
18575;DHT22;9417;16.484;102.872;2022-12-29T07:57:38;27.70;50.80
18575;DHT22;9417;16.484;102.872;2022-12-29T07:59:47;27.70;50.50
18575;DHT22;9417;16.484;102.872;2022-12-29T08:01:54;27.70;50.60
18575;DHT22;9417;16.484;102.872;2022-12-29T08:04:01;27.60;51.00
18575;DHT22;9417;16.484;102.872;2022-12-29T08:06:10;27.70;51.00
18575;DHT22;9417;16.484;102.872;2022-12-29T08:08:17;27.60;50.60
18575;DHT22;9417;16.484;102.872;2022-12-29T08:10:25;27.60;51.20
18575;DHT22;9417;16.484;102.872;2022-12-29T08:12:32;27.60;51.70
18575;DHT22;9417;16.484;102.872;2022-12-29T08:14:39;27.70;51.40
18575;DHT22;9417;16.484;102.872;2022-12-29T08:16:48;27.60;51.30
18575;DHT22;9417;16.484;102.872;2022-12-29T08:18:55;27.60;51.40
18575;DHT22;9417;16.484;102.872;2022-12-29T08:21:04;27.60;51.10
18575;DHT22;9417;16.484;102.872;2022-12-29T08:23:11;27.60;51.30
18575;DHT22;9417;16.484;102.872;2022-12-29T08:25:18;27.50;51.90
18575;DHT22;9417;16.484;102.872;2022-12-29T08:27:27;27.50;52.00
18575;DHT22;9417;16.484;102.872;2022-12-29T08:29:34;27.50;50.80
18575;DHT22;9417;16.484;102.872;2022-12-29T08:31:41;27.60;51.00
18575;DHT22;9417;16.484;102.872;2022-12-29T08:33:52;27.50;50.80
18575;DHT22;9417;16.484;102.872;2022-12-29T08:36:00;27.60;51.60
18575;DHT22;9417;16.484;102.872;2022-12-29T08:38:07;27.50;51.30
18575;DHT22;9417;16.484;102.872;2022-12-29T08:40:16;27.50;51.00
18575;DHT22;9417;16.484;102.872;2022-12-29T08:42:23;27.40;51.30
18575;DHT22;9417;16.484;102.872;2022-12-29T08:44:33;27.40;51.50
18575;DHT22;9417;16.484;102.872;2022-12-29T08:46:40;27.40;51.90
18575;DHT22;9417;16.484;102.872;2022-12-29T08:48:47;27.30;51.10
18575;DHT22;9417;16.484;102.872;2022-12-29T08:50:56;27.30;51.40
18575;DHT22;9417;16.484;102.872;2022-12-29T08:53:03;27.30;51.70
18575;DHT22;9417;16.484;102.872;2022-12-29T08:55:11;27.30;52.30
18575;DHT22;9417;16.484;102.872;2022-12-29T08:57:19;27.20;52.40
18575;DHT22;9417;16.484;102.872;2022-12-29T08:59:49;27.20;52.50
18575;DHT22;9417;16.484;102.872;2022-12-29T09:01:57;27.20;51.90
18575;DHT22;9417;16.484;102.872;2022-12-29T09:04:05;27.20;52.10
18575;DHT22;9417;16.484;102.872;2022-12-29T09:06:22;27.20;52.30
18575;DHT22;9417;16.484;102.872;2022-12-29T09:08:29;27.10;52.50
18575;DHT22;9417;16.484;102.872;2022-12-29T09:10:39;27.10;52.60
18575;DHT22;9417;16.484;102.872;2022-12-29T09:12:46;27.10;52.70
18575;DHT22;9417;16.484;102.872;2022-12-29T09:14:53;27.00;52.70
18575;DHT22;9417;16.484;102.872;2022-12-29T09:17:00;27.00;52.50
18575;DHT22;9417;16.484;102.872;2022-12-29T09:19:24;27.10;53.00
18575;DHT22;9417;16.484;102.872;2022-12-29T09:21:32;27.00;53.00
18575;DHT22;9417;16.484;102.872;2022-12-29T09:23:40;27.00;52.80
18575;DHT22;9417;16.484;102.872;2022-12-29T09:26:03;26.90;52.40
18575;DHT22;9417;16.484;102.872;2022-12-29T09:28:10;26.90;51.40
18575;DHT22;9417;16.484;102.872;2022-12-29T09:30:17;27.00;52.00
18575;DHT22;9417;16.484;102.872;2022-12-29T09:32:24;27.00;52.60
18575;DHT22;9417;16.484;102.872;2022-12-29T09:34:36;27.00;52.70
18575;DHT22;9417;16.484;102.872;2022-12-29T09:36:45;26.90;53.00
18575;DHT22;9417;16.484;102.872;2022-12-29T09:38:53;26.90;52.60
18575;DHT22;9417;16.484;102.872;2022-12-29T09:41:04;26.90;52.80
18575;DHT22;9417;16.484;102.872;2022-12-29T09:43:35;26.80;52.90
18575;DHT22;9417;16.484;102.872;2022-12-29T09:45:52;26.80;52.70
18575;DHT22;9417;16.484;102.872;2022-12-29T09:48:02;26.80;53.10
18575;DHT22;9417;16.484;102.872;2022-12-29T09:50:20;26.70;52.70
18575;DHT22;9417;16.484;102.872;2022-12-29T09:52:32;26.70;52.90
18575;DHT22;9417;16.484;102.872;2022-12-29T09:54:49;26.60;53.20
18575;DHT22;9417;16.484;102.872;2022-12-29T09:57:09;26.60;53.30
18575;DHT22;9417;16.484;102.872;2022-12-29T09:59:22;26.50;53.60
18575;DHT22;9417;16.484;102.872;2022-12-29T10:01:34;26.50;53.90
18575;DHT22;9417;16.484;102.872;2022-12-29T10:03:46;26.40;53.90
18575;DHT22;9417;16.484;102.872;2022-12-29T10:06:00;26.40;54.10
18575;DHT22;9417;16.484;102.872;2022-12-29T10:08:23;26.30;54.10
18575;DHT22;9417;16.484;102.872;2022-12-29T10:10:39;26.30;54.30
18575;DHT22;9417;16.484;102.872;2022-12-29T10:13:05;26.30;54.20
18575;DHT22;9417;16.484;102.872;2022-12-29T10:15:24;26.20;54.10
18575;DHT22;9417;16.484;102.872;2022-12-29T10:17:41;26.20;54.50
18575;DHT22;9417;16.484;102.872;2022-12-29T10:20:10;26.10;54.70
18575;DHT22;9417;16.484;102.872;2022-12-29T10:22:28;26.10;54.80
18575;DHT22;9417;16.484;102.872;2022-12-29T10:24:40;26.00;54.90
18575;DHT22;9417;16.484;102.872;2022-12-29T10:26:50;26.00;55.20
18575;DHT22;9417;16.484;102.872;2022-12-29T10:29:02;26.00;55.40
18575;DHT22;9417;16.484;102.872;2022-12-29T10:31:15;25.90;55.20
18575;DHT22;9417;16.484;102.872;2022-12-29T10:33:29;25.90;55.30
18575;DHT22;9417;16.484;102.872;2022-12-29T10:35:39;25.90;55.40
18575;DHT22;9417;16.484;102.872;2022-12-29T10:37:51;25.90;55.70
18575;DHT22;9417;16.484;102.872;2022-12-29T10:40:15;25.80;55.60
18575;DHT22;9417;16.484;102.872;2022-12-29T10:42:28;25.80;56.00
18575;DHT22;9417;16.484;102.872;2022-12-29T10:44:35;25.70;56.00
18575;DHT22;9417;16.484;102.872;2022-12-29T10:46:44;25.70;56.10
18575;DHT22;9417;16.484;102.872;2022-12-29T10:48:55;25.60;56.00
18575;DHT22;9417;16.484;102.872;2022-12-29T10:51:03;25.60;56.30
18575;DHT22;9417;16.484;102.872;2022-12-29T10:53:18;25.60;56.10
18575;DHT22;9417;16.484;102.872;2022-12-29T10:55:30;25.60;56.20
18575;DHT22;9417;16.484;102.872;2022-12-29T10:57:42;25.60;56.30
18575;DHT22;9417;16.484;102.872;2022-12-29T10:59:50;25.60;56.50
18575;DHT22;9417;16.484;102.872;2022-12-29T11:02:05;25.50;56.60
18575;DHT22;9417;16.484;102.872;2022-12-29T11:04:40;25.50;56.70
18575;DHT22;9417;16.484;102.872;2022-12-29T11:06:49;25.50;56.60
18575;DHT22;9417;16.484;102.872;2022-12-29T11:08:58;25.40;56.90
18575;DHT22;9417;16.484;102.872;2022-12-29T11:11:09;25.40;56.80
18575;DHT22;9417;16.484;102.872;2022-12-29T11:13:18;25.40;56.90
18575;DHT22;9417;16.484;102.872;2022-12-29T11:15:26;25.40;57.30
18575;DHT22;9417;16.484;102.872;2022-12-29T11:17:44;25.30;57.50
18575;DHT22;9417;16.484;102.872;2022-12-29T11:19:51;25.30;57.60
18575;DHT22;9417;16.484;102.872;2022-12-29T11:22:13;25.30;57.60
18575;DHT22;9417;16.484;102.872;2022-12-29T11:24:23;25.30;57.80
18575;DHT22;9417;16.484;102.872;2022-12-29T11:26:33;25.30;57.60
18575;DHT22;9417;16.484;102.872;2022-12-29T11:28:41;25.30;57.90
18575;DHT22;9417;16.484;102.872;2022-12-29T11:31:00;25.30;57.90
18575;DHT22;9417;16.484;102.872;2022-12-29T11:33:09;25.30;57.70
18575;DHT22;9417;16.484;102.872;2022-12-29T11:35:30;25.30;57.90
18575;DHT22;9417;16.484;102.872;2022-12-29T11:37:39;25.30;58.00
18575;DHT22;9417;16.484;102.872;2022-12-29T11:39:51;25.20;57.90
18575;DHT22;9417;16.484;102.872;2022-12-29T11:42:04;25.20;57.90
18575;DHT22;9417;16.484;102.872;2022-12-29T11:44:14;25.20;58.00
18575;DHT22;9417;16.484;102.872;2022-12-29T11:46:24;25.20;58.00
18575;DHT22;9417;16.484;102.872;2022-12-29T11:48:37;25.10;57.90
18575;DHT22;9417;16.484;102.872;2022-12-29T11:50:53;25.20;57.90
18575;DHT22;9417;16.484;102.872;2022-12-29T11:53:02;25.10;57.80
18575;DHT22;9417;16.484;102.872;2022-12-29T11:55:19;25.10;58.30
18575;DHT22;9417;16.484;102.872;2022-12-29T11:57:28;25.10;58.10
18575;DHT22;9417;16.484;102.872;2022-12-29T11:59:48;25.10;58.20
18575;DHT22;9417;16.484;102.872;2022-12-29T12:01:57;25.10;58.20
18575;DHT22;9417;16.484;102.872;2022-12-29T12:04:07;25.10;58.30
18575;DHT22;9417;16.484;102.872;2022-12-29T12:06:19;25.10;58.40
18575;DHT22;9417;16.484;102.872;2022-12-29T12:08:34;25.10;58.60
18575;DHT22;9417;16.484;102.872;2022-12-29T12:10:45;25.10;58.90
18575;DHT22;9417;16.484;102.872;2022-12-29T12:13:05;25.00;58.70
18575;DHT22;9417;16.484;102.872;2022-12-29T12:15:17;25.00;58.50
18575;DHT22;9417;16.484;102.872;2022-12-29T12:17:33;25.00;58.60
18575;DHT22;9417;16.484;102.872;2022-12-29T12:19:47;25.00;58.60
18575;DHT22;9417;16.484;102.872;2022-12-29T12:21:58;25.00;58.60
18575;DHT22;9417;16.484;102.872;2022-12-29T12:24:19;25.00;58.80
18575;DHT22;9417;16.484;102.872;2022-12-29T12:26:34;24.90;58.70
18575;DHT22;9417;16.484;102.872;2022-12-29T12:28:49;24.90;58.60
18575;DHT22;9417;16.484;102.872;2022-12-29T12:30:58;24.90;58.80
18575;DHT22;9417;16.484;102.872;2022-12-29T12:33:12;24.90;58.80
18575;DHT22;9417;16.484;102.872;2022-12-29T12:35:28;24.90;58.70
18575;DHT22;9417;16.484;102.872;2022-12-29T12:37:52;24.90;58.80
18575;DHT22;9417;16.484;102.872;2022-12-29T12:40:24;24.80;58.60
18575;DHT22;9417;16.484;102.872;2022-12-29T12:42:40;24.80;58.40
18575;DHT22;9417;16.484;102.872;2022-12-29T12:45:15;24.80;58.40
18575;DHT22;9417;16.484;102.872;2022-12-29T12:47:48;24.80;58.40
18575;DHT22;9417;16.484;102.872;2022-12-29T12:53:03;24.80;58.40
18575;DHT22;9417;16.484;102.872;2022-12-29T12:55:30;24.80;58.60
18575;DHT22;9417;16.484;102.872;2022-12-29T12:57:49;24.70;58.70
18575;DHT22;9417;16.484;102.872;2022-12-29T13:00:07;24.70;58.60
18575;DHT22;9417;16.484;102.872;2022-12-29T13:02:25;24.70;58.80
18575;DHT22;9417;16.484;102.872;2022-12-29T13:04:56;24.70;59.00
18575;DHT22;9417;16.484;102.872;2022-12-29T13:07:13;24.70;59.10
18575;DHT22;9417;16.484;102.872;2022-12-29T13:09:32;24.70;59.00
18575;DHT22;9417;16.484;102.872;2022-12-29T13:11:55;24.70;59.10
18575;DHT22;9417;16.484;102.872;2022-12-29T13:14:18;24.60;58.80
18575;DHT22;9417;16.484;102.872;2022-12-29T13:16:34;24.60;58.80
18575;DHT22;9417;16.484;102.872;2022-12-29T13:18:49;24.60;58.90
18575;DHT22;9417;16.484;102.872;2022-12-29T13:21:04;24.60;59.10
18575;DHT22;9417;16.484;102.872;2022-12-29T13:23:20;24.60;58.90
18575;DHT22;9417;16.484;102.872;2022-12-29T13:25:36;24.60;59.00
18575;DHT22;9417;16.484;102.872;2022-12-29T13:27:50;24.50;58.80
18575;DHT22;9417;16.484;102.872;2022-12-29T13:30:02;24.50;58.90
18575;DHT22;9417;16.484;102.872;2022-12-29T13:32:21;24.50;59.10
18575;DHT22;9417;16.484;102.872;2022-12-29T13:34:36;24.50;59.40
18575;DHT22;9417;16.484;102.872;2022-12-29T13:36:49;24.50;59.20
18575;DHT22;9417;16.484;102.872;2022-12-29T13:39:05;24.50;59.30
18575;DHT22;9417;16.484;102.872;2022-12-29T13:41:16;24.50;59.00
18575;DHT22;9417;16.484;102.872;2022-12-29T13:43:25;24.50;59.00
18575;DHT22;9417;16.484;102.872;2022-12-29T13:45:35;24.50;59.20
18575;DHT22;9417;16.484;102.872;2022-12-29T13:47:47;24.50;59.20
18575;DHT22;9417;16.484;102.872;2022-12-29T13:49:58;24.40;59.30
18575;DHT22;9417;16.484;102.872;2022-12-29T13:52:11;24.40;59.50